Aviation

FTHA31 MTPP 171800
TAF MTPP 171700Z 1718/1818 09004KT 9000 FEW010 SCT022 BKN050
BECMG 1719/1723 27010KT
PROB40 TEMPO 1800/1804 4500 SHRA SCT022CB BKN050
BECMG 1808/1812 VRB02KT 9000 FEW016 SCT020
BECMG 1813/1817 09010KT=